createdAt,value
2023-04-22T00:00:35.341Z,1.74
2023-04-22T00:01:35.388Z,1.95
2023-04-22T00:02:35.525Z,2.10
2023-04-22T00:03:35.740Z,1.94
2023-04-22T00:04:35.761Z,1.98
2023-04-22T00:05:35.626Z,1.87
2023-04-22T00:06:35.674Z,1.88
2023-04-22T00:07:35.676Z,2.04
2023-04-22T00:08:35.739Z,2.16
2023-04-22T00:09:35.995Z,2.33
2023-04-22T00:10:35.858Z,2.26
2023-04-22T00:11:35.909Z,2.11
2023-04-22T00:12:35.970Z,2.15
2023-04-22T00:13:36.084Z,2.21
2023-04-22T00:14:36.090Z,1.97
2023-04-22T00:15:36.153Z,2.09
2023-04-22T00:16:36.363Z,1.88
2023-04-22T00:17:36.310Z,1.95
2023-04-22T00:18:36.352Z,2.13
2023-04-22T00:19:36.668Z,1.89
2023-04-22T00:20:36.442Z,2.03
2023-04-22T00:21:36.496Z,2.04
2023-04-22T00:22:36.748Z,1.86
2023-04-22T00:23:36.592Z,2.13
2023-04-22T00:24:36.610Z,2.03
2023-04-22T00:25:36.625Z,2.05
2023-04-22T00:26:36.631Z,1.76
2023-04-22T00:27:36.644Z,1.71
2023-04-22T00:28:36.632Z,1.64
2023-04-22T00:29:36.806Z,1.71
2023-04-22T00:30:36.636Z,1.83
2023-04-22T00:31:36.784Z,1.52
2023-04-22T00:32:36.875Z,1.71
2023-04-22T00:33:36.936Z,1.90
2023-04-22T00:34:37.029Z,1.90
2023-04-22T00:35:37.113Z,2.17
2023-04-22T00:36:37.191Z,1.89
2023-04-22T00:37:37.304Z,2.01
2023-04-22T00:38:37.455Z,1.91
2023-04-22T00:39:37.861Z,1.93
2023-04-22T00:40:37.514Z,1.74
2023-04-22T00:41:37.502Z,1.82
2023-04-22T00:42:37.528Z,1.94
2023-04-22T00:43:37.678Z,1.83
2023-04-22T00:44:37.508Z,2.01
2023-04-22T00:45:37.532Z,1.90
2023-04-22T00:46:37.547Z,2.03
2023-04-22T00:47:37.587Z,2.15
2023-04-22T00:48:37.553Z,2.08
2023-04-22T00:49:37.773Z,2.00
2023-04-22T00:50:37.544Z,2.12
2023-04-22T00:51:37.577Z,2.13
2023-04-22T00:52:37.573Z,2.10
2023-04-22T00:53:37.634Z,2.21
2023-04-22T00:54:37.603Z,2.10
2023-04-22T00:55:37.571Z,2.02
2023-04-22T00:56:37.544Z,2.09
2023-04-22T00:57:37.570Z,2.16
2023-04-22T00:58:37.553Z,2.09
2023-04-22T00:59:37.896Z,2.22
2023-04-22T01:00:37.699Z,2.19
2023-04-22T01:01:37.587Z,2.11
2023-04-22T01:02:37.703Z,1.96
2023-04-22T01:03:37.772Z,1.92
2023-04-22T01:04:37.623Z,1.77
2023-04-22T01:05:37.607Z,1.69
2023-04-22T01:06:37.616Z,1.74
2023-04-22T01:07:37.679Z,1.69
2023-04-22T01:08:37.633Z,1.97
2023-04-22T01:09:37.926Z,2.12
2023-04-22T01:10:37.638Z,2.10
2023-04-22T01:11:37.707Z,2.28
2023-04-22T01:12:37.754Z,2.02
2023-04-22T01:13:37.738Z,2.06
2023-04-22T01:14:37.768Z,2.51
2023-04-22T01:15:37.768Z,2.32
2023-04-22T01:16:37.820Z,1.95
2023-04-22T01:17:37.857Z,1.80
2023-04-22T01:18:37.889Z,1.57
2023-04-22T01:19:38.312Z,1.19
2023-04-22T01:20:38.008Z,1.23
2023-04-22T01:21:38.070Z,1.29
2023-04-22T01:22:38.134Z,1.25
2023-04-22T01:23:38.204Z,1.29
2023-04-22T01:24:38.255Z,1.22
2023-04-22T01:25:38.251Z,1.47
2023-04-22T01:26:38.295Z,1.49
2023-04-22T01:27:38.367Z,1.44
2023-04-22T01:28:38.397Z,1.53
2023-04-22T01:29:38.733Z,1.51
2023-04-22T01:30:38.453Z,1.29
2023-04-22T01:31:38.554Z,1.19
2023-04-22T01:32:38.590Z,1.13
2023-04-22T01:33:38.570Z,1.14
2023-04-22T01:34:38.591Z,1.42
2023-04-22T01:35:38.732Z,1.39
2023-04-22T01:36:38.672Z,1.68
2023-04-22T01:37:38.771Z,1.84
2023-04-22T01:38:38.745Z,1.95
2023-04-22T01:39:38.890Z,1.68
2023-04-22T01:40:38.847Z,1.47
2023-04-22T01:41:38.866Z,1.41
2023-04-22T01:42:38.954Z,1.39
2023-04-22T01:43:38.984Z,1.47
2023-04-22T01:44:39.066Z,1.55
2023-04-22T01:45:39.150Z,1.50
2023-04-22T01:46:39.180Z,1.57
2023-04-22T01:47:39.250Z,1.47
2023-04-22T01:48:39.229Z,1.09
2023-04-22T01:49:39.471Z,1.28
2023-04-22T01:50:39.400Z,1.32
2023-04-22T01:51:40.127Z,1.32
2023-04-22T01:52:39.506Z,1.50
2023-04-22T01:53:39.532Z,1.36
2023-04-22T01:54:39.574Z,1.46
2023-04-22T01:55:39.631Z,1.32
2023-04-22T01:56:39.695Z,1.44
2023-04-22T01:57:39.763Z,1.37
2023-04-22T01:58:39.968Z,1.54
2023-04-22T01:59:40.071Z,1.77
2023-04-22T02:00:39.921Z,1.94
2023-04-22T02:01:40.026Z,2.02
2023-04-22T02:02:40.110Z,2.04
2023-04-22T02:03:40.178Z,1.72
2023-04-22T02:04:40.161Z,1.93
2023-04-22T02:05:40.230Z,2.06
2023-04-22T02:06:40.262Z,2.13
2023-04-22T02:07:40.330Z,2.28
2023-04-22T02:08:40.388Z,2.23
2023-04-22T02:09:40.839Z,2.42
2023-04-22T02:10:40.496Z,2.25
2023-04-22T02:11:40.564Z,1.88
2023-04-22T02:12:40.614Z,1.78
2023-04-22T02:13:41.175Z,2.08
2023-04-22T02:14:40.632Z,1.94
2023-04-22T02:15:40.671Z,1.79
2023-04-22T02:16:40.710Z,1.60
2023-04-22T02:17:40.964Z,1.77
2023-04-22T02:18:40.930Z,1.60
2023-04-22T02:19:41.136Z,1.51
2023-04-22T02:20:40.969Z,1.34
2023-04-22T02:21:40.977Z,1.40
2023-04-22T02:22:40.986Z,1.69
2023-04-22T02:23:41.088Z,2.08
2023-04-22T02:24:41.091Z,1.99
2023-04-22T02:25:41.179Z,1.82
2023-04-22T02:26:41.177Z,1.72
2023-04-22T02:27:41.247Z,1.69
2023-04-22T02:28:41.278Z,1.64
2023-04-22T02:29:41.619Z,1.76
2023-04-22T02:30:41.348Z,1.83
2023-04-22T02:31:41.445Z,1.95
2023-04-22T02:32:41.498Z,1.85
2023-04-22T02:33:41.487Z,1.78
2023-04-22T02:34:41.486Z,1.56
2023-04-22T02:35:41.662Z,1.64
2023-04-22T02:36:41.540Z,1.60
2023-04-22T02:37:41.491Z,1.56
2023-04-22T02:38:41.503Z,1.41
2023-04-22T02:39:41.858Z,1.27
2023-04-22T02:40:41.531Z,1.28
2023-04-22T02:41:41.598Z,1.36
2023-04-22T02:42:41.596Z,1.56
2023-04-22T02:43:41.590Z,1.69
2023-04-22T02:44:41.615Z,1.75
2023-04-22T02:45:41.717Z,1.62
2023-04-22T02:46:41.729Z,1.68
2023-04-22T02:47:41.731Z,1.59
2023-04-22T02:48:41.751Z,1.53
2023-04-22T02:49:41.937Z,1.43
2023-04-22T02:50:41.743Z,1.48
2023-04-22T02:51:41.765Z,1.36
2023-04-22T02:52:41.796Z,1.37
2023-04-22T02:53:41.801Z,1.39
2023-04-22T02:54:41.851Z,1.35
2023-04-22T02:55:41.869Z,1.21
2023-04-22T02:56:41.879Z,1.20
2023-04-22T02:57:41.895Z,1.15
2023-04-22T02:58:41.933Z,1.23
2023-04-22T02:59:42.266Z,1.17
2023-04-22T03:00:42.043Z,1.36
2023-04-22T03:01:41.965Z,1.38
2023-04-22T03:02:42.283Z,1.39
2023-04-22T03:03:42.286Z,1.43
2023-04-22T03:04:42.147Z,1.46
2023-04-22T03:05:42.155Z,1.37
2023-04-22T03:06:42.181Z,1.39
2023-04-22T03:07:42.200Z,1.59
2023-04-22T03:08:42.269Z,1.58
2023-04-22T03:09:42.515Z,1.59
2023-04-22T03:10:42.335Z,1.67
2023-04-22T03:11:42.363Z,1.59
2023-04-22T03:12:42.415Z,1.52
2023-04-22T03:13:42.520Z,1.59
2023-04-22T03:14:42.535Z,1.74
2023-04-22T03:15:42.652Z,1.81
2023-04-22T03:16:42.611Z,1.48
2023-04-22T03:17:42.609Z,1.47
2023-04-22T03:18:43.170Z,1.47
2023-04-22T03:19:42.949Z,1.65
2023-04-22T03:20:42.774Z,2.02
2023-04-22T03:21:43.130Z,2.21
2023-04-22T03:22:42.900Z,2.19
2023-04-22T03:23:42.943Z,2.47
2023-04-22T03:24:43.019Z,2.54
2023-04-22T03:25:43.050Z,2.29
2023-04-22T03:26:43.055Z,2.33
2023-04-22T03:27:43.178Z,2.23
2023-04-22T03:28:43.168Z,2.39
2023-04-22T03:29:43.352Z,2.40
2023-04-22T03:30:43.299Z,2.38
2023-04-22T03:31:43.414Z,2.27
2023-04-22T03:32:43.428Z,2.60
2023-04-22T03:33:43.466Z,2.58
2023-04-22T03:34:43.533Z,3.01
2023-04-22T03:35:43.648Z,3.23
2023-04-22T03:36:43.633Z,3.69
2023-04-22T03:37:43.707Z,3.41
2023-04-22T03:38:43.746Z,3.16
2023-04-22T03:39:43.816Z,3.41
2023-04-22T03:40:43.866Z,3.66
2023-04-22T03:41:43.939Z,3.69
2023-04-22T03:42:43.973Z,3.35
2023-04-22T03:43:44.056Z,3.19
2023-04-22T03:44:44.067Z,2.82
2023-04-22T03:45:44.132Z,2.83
2023-04-22T03:46:44.097Z,2.94
2023-04-22T03:47:44.091Z,3.31
2023-04-22T03:48:44.072Z,3.20
2023-04-22T03:49:44.136Z,3.64
2023-04-22T03:50:44.199Z,3.62
2023-04-22T03:51:44.255Z,3.31
2023-04-22T03:52:44.318Z,3.47
2023-04-22T03:53:44.328Z,3.11
2023-04-22T03:54:44.379Z,2.89
2023-04-22T03:55:44.477Z,2.68
2023-04-22T03:56:44.483Z,2.90
2023-04-22T03:57:44.545Z,3.06
2023-04-22T03:58:44.598Z,3.36
2023-04-22T03:59:44.662Z,3.64
2023-04-22T04:00:44.707Z,3.69
2023-04-22T04:01:44.817Z,3.50
2023-04-22T04:02:45.200Z,3.47
2023-04-22T04:03:45.024Z,3.52
2023-04-22T04:04:45.100Z,3.32
2023-04-22T04:05:45.048Z,3.41
2023-04-22T04:06:45.026Z,3.31
2023-04-22T04:07:45.078Z,3.47
2023-04-22T04:08:45.078Z,3.75
2023-04-22T04:09:45.133Z,3.64
2023-04-22T04:10:45.215Z,3.69
2023-04-22T04:11:45.192Z,3.63
2023-04-22T04:12:45.265Z,3.68
2023-04-22T04:13:45.325Z,3.74
2023-04-22T04:14:45.326Z,3.83
2023-04-22T04:15:45.434Z,3.79
2023-04-22T04:16:45.699Z,3.96
2023-04-22T04:17:45.503Z,3.92
2023-04-22T04:18:45.526Z,4.10
2023-04-22T04:19:45.560Z,3.99
2023-04-22T04:20:45.629Z,4.17
2023-04-22T04:21:45.676Z,4.37
2023-04-22T04:22:45.745Z,3.98
2023-04-22T04:23:45.801Z,3.85
2023-04-22T04:24:45.868Z,4.02
2023-04-22T04:25:45.910Z,4.11
2023-04-22T04:26:45.911Z,4.32
2023-04-22T04:27:45.970Z,4.56
2023-04-22T04:28:46.021Z,4.89
2023-04-22T04:29:46.152Z,5.03
2023-04-22T04:30:46.192Z,5.21
2023-04-22T04:31:46.328Z,4.98
2023-04-22T04:32:46.348Z,5.22
2023-04-22T04:33:46.368Z,5.28
2023-04-22T04:34:46.369Z,5.25
2023-04-22T04:35:46.391Z,5.58
2023-04-22T04:36:46.400Z,5.68
2023-04-22T04:37:46.458Z,5.99
2023-04-22T04:38:46.501Z,6.02
2023-04-22T04:39:46.506Z,6.29
2023-04-22T04:40:46.582Z,6.49
2023-04-22T04:41:46.634Z,6.47
2023-04-22T04:42:46.732Z,5.46
2023-04-22T04:43:46.643Z,5.50
2023-04-22T04:44:46.650Z,5.26
2023-04-22T04:45:48.354Z,5.30
2023-04-22T04:46:46.729Z,5.51
2023-04-22T04:47:46.734Z,5.65
2023-04-22T04:48:46.696Z,6.19
2023-04-22T04:49:46.700Z,6.50
2023-04-22T04:50:46.742Z,6.04
2023-04-22T04:51:46.872Z,5.84
2023-04-22T04:52:46.900Z,5.73
2023-04-22T04:53:46.982Z,5.72
2023-04-22T04:54:47.008Z,5.57
2023-04-22T04:55:47.205Z,5.49
2023-04-22T04:56:47.145Z,5.39
2023-04-22T04:57:47.234Z,5.29
2023-04-22T04:58:47.279Z,5.12
2023-04-22T04:59:47.318Z,4.81
2023-04-22T05:00:47.383Z,4.39
2023-04-22T05:01:47.475Z,4.42
2023-04-22T05:02:47.604Z,4.60
2023-04-22T05:03:47.736Z,4.25
2023-04-22T05:04:47.718Z,3.89
2023-04-22T05:05:47.726Z,4.13
2023-04-22T05:06:47.773Z,4.23
2023-04-22T05:07:47.780Z,4.09
2023-04-22T05:08:47.797Z,3.83
2023-04-22T05:09:47.848Z,3.87
2023-04-22T05:10:48.115Z,3.41
2023-04-22T05:11:47.968Z,2.94
2023-04-22T05:12:47.963Z,2.96
2023-04-22T05:13:48.036Z,3.07
2023-04-22T05:14:48.071Z,3.14
2023-04-22T05:15:48.254Z,3.29
2023-04-22T05:16:48.262Z,3.47
2023-04-22T05:17:48.306Z,3.25
2023-04-22T05:18:48.268Z,3.13
2023-04-22T05:19:48.281Z,3.02
2023-04-22T05:20:48.336Z,2.65
2023-04-22T05:21:48.405Z,2.31
2023-04-22T05:22:48.460Z,2.28
2023-04-22T05:23:48.440Z,2.64
2023-04-22T05:24:48.521Z,2.66
2023-04-22T05:25:49.144Z,2.69
2023-04-22T05:26:48.589Z,2.85
2023-04-22T05:27:48.643Z,3.07
2023-04-22T05:28:48.701Z,2.82
2023-04-22T05:29:48.780Z,2.78
2023-04-22T05:30:48.819Z,2.84
2023-04-22T05:31:48.898Z,3.16
2023-04-22T05:32:48.906Z,3.25
2023-04-22T05:33:48.934Z,3.52
2023-04-22T05:34:48.945Z,3.63
2023-04-22T05:35:49.007Z,3.95
2023-04-22T05:36:49.065Z,4.36
2023-04-22T05:37:49.050Z,4.30
2023-04-22T05:38:49.123Z,4.26
2023-04-22T05:39:49.170Z,4.03
2023-04-22T05:40:49.177Z,4.54
2023-04-22T05:41:49.386Z,4.74
2023-04-22T05:42:49.293Z,4.81
2023-04-22T05:43:49.447Z,4.60
2023-04-22T05:44:49.405Z,4.79
2023-04-22T05:45:49.531Z,4.83
2023-04-22T05:46:49.541Z,4.81
2023-04-22T05:47:49.601Z,5.16
2023-04-22T05:48:49.562Z,4.83
2023-04-22T05:49:49.579Z,5.24
2023-04-22T05:50:49.550Z,5.68
2023-04-22T05:51:49.626Z,6.42
2023-04-22T05:52:49.621Z,6.38
2023-04-22T05:53:49.628Z,6.59
2023-04-22T05:54:49.645Z,6.19
2023-04-22T05:55:49.794Z,6.13
2023-04-22T05:56:49.714Z,6.16
2023-04-22T05:57:50.121Z,6.07
2023-04-22T05:58:49.818Z,5.20
2023-04-22T05:59:49.893Z,4.76
2023-04-22T06:00:49.817Z,5.15
2023-04-22T06:01:49.901Z,5.05
2023-04-22T06:02:50.106Z,5.98
2023-04-22T06:03:50.204Z,6.09
2023-04-22T06:04:50.432Z,5.94
2023-04-22T06:05:50.068Z,5.98
2023-04-22T06:06:49.977Z,5.20
2023-04-22T06:07:50.026Z,5.35
2023-04-22T06:08:50.095Z,5.42
2023-04-22T06:09:51.089Z,5.27
2023-04-22T06:10:50.166Z,5.62
2023-04-22T06:11:50.104Z,5.47
2023-04-22T06:12:50.117Z,5.39
2023-04-22T06:13:50.140Z,5.85
2023-04-22T06:14:50.075Z,5.50
2023-04-22T06:15:50.154Z,4.97
2023-04-22T06:16:50.089Z,4.59
2023-04-22T06:17:50.276Z,4.30
2023-04-22T06:18:50.045Z,3.82
2023-04-22T06:19:50.111Z,3.38
2023-04-22T06:20:50.066Z,3.07
2023-04-22T06:21:50.023Z,3.18
2023-04-22T06:22:50.033Z,2.72
2023-04-22T06:23:50.036Z,2.70
2023-04-22T06:24:50.036Z,2.64
2023-04-22T06:25:49.983Z,3.05
2023-04-22T06:26:50.016Z,3.41
2023-04-22T06:27:50.017Z,4.00
2023-04-22T06:28:50.025Z,3.99
2023-04-22T06:29:49.974Z,3.80
2023-04-22T06:30:49.994Z,3.77
2023-04-22T06:31:50.063Z,3.94
2023-04-22T06:32:50.057Z,4.33
2023-04-22T06:33:50.012Z,4.25
2023-04-22T06:34:50.010Z,4.80
2023-04-22T06:35:49.961Z,4.89
2023-04-22T06:36:49.918Z,5.09
2023-04-22T06:37:49.924Z,5.39
2023-04-22T06:38:49.922Z,5.32
2023-04-22T06:39:49.940Z,4.99
2023-04-22T06:40:49.878Z,4.59
2023-04-22T06:41:49.899Z,4.49
2023-04-22T06:42:49.894Z,4.27
2023-04-22T06:43:49.913Z,3.94
2023-04-22T06:44:49.890Z,4.56
2023-04-22T06:45:49.885Z,4.24
2023-04-22T06:46:49.918Z,4.49
2023-04-22T06:47:49.959Z,4.23
2023-04-22T06:48:49.849Z,3.97
2023-04-22T06:49:49.841Z,3.67
2023-04-22T06:50:50.033Z,3.59
2023-04-22T06:51:49.868Z,3.48
2023-04-22T06:52:49.833Z,3.04
2023-04-22T06:53:49.828Z,3.09
2023-04-22T06:54:49.851Z,3.08
2023-04-22T06:55:49.847Z,3.21
2023-04-22T06:56:49.866Z,3.14
2023-04-22T06:57:49.787Z,2.98
2023-04-22T06:58:49.832Z,3.03
2023-04-22T06:59:49.761Z,2.99
2023-04-22T07:00:49.785Z,3.04
2023-04-22T07:01:49.796Z,3.15
2023-04-22T07:02:49.847Z,3.15
2023-04-22T07:03:49.822Z,3.12
2023-04-22T07:04:49.748Z,3.17
2023-04-22T07:05:49.759Z,3.05
2023-04-22T07:06:49.697Z,3.03
2023-04-22T07:07:49.721Z,3.13
2023-04-22T07:08:49.729Z,2.92
2023-04-22T07:09:49.731Z,2.68
2023-04-22T07:10:49.738Z,2.07
2023-04-22T07:11:49.765Z,1.73
2023-04-22T07:12:49.761Z,2.07
2023-04-22T07:13:49.785Z,2.70
2023-04-22T07:14:49.794Z,2.60
2023-04-22T07:15:49.916Z,2.97
2023-04-22T07:16:50.033Z,3.07
2023-04-22T07:17:50.044Z,3.24
2023-04-22T07:18:50.097Z,2.98
2023-04-22T07:19:50.153Z,3.36
2023-04-22T07:20:50.224Z,3.54
2023-04-22T07:21:50.215Z,3.35
2023-04-22T07:22:50.268Z,3.69
2023-04-22T07:23:50.335Z,3.33
2023-04-22T07:24:50.339Z,3.22
2023-04-22T07:25:50.382Z,2.53
2023-04-22T07:26:50.465Z,2.07
2023-04-22T07:27:50.471Z,2.03
2023-04-22T07:28:50.521Z,1.99
2023-04-22T07:29:51.049Z,2.02
2023-04-22T07:30:50.604Z,1.70
2023-04-22T07:31:50.679Z,1.67
2023-04-22T07:32:50.689Z,1.34
2023-04-22T07:33:50.726Z,1.48
2023-04-22T07:34:50.792Z,1.51
2023-04-22T07:35:50.825Z,1.28
2023-04-22T07:36:50.830Z,1.19
2023-04-22T07:37:50.896Z,1.04
2023-04-22T07:38:50.964Z,1.00
2023-04-22T07:39:50.986Z,1.15
2023-04-22T07:40:51.062Z,1.25
2023-04-22T07:41:51.117Z,1.26
2023-04-22T07:42:51.168Z,1.71
2023-04-22T07:43:51.183Z,1.62
2023-04-22T07:44:51.244Z,1.59
2023-04-22T07:45:51.325Z,1.30
2023-04-22T07:46:51.301Z,1.32
2023-04-22T07:47:51.413Z,1.26
2023-04-22T07:48:51.387Z,1.24
2023-04-22T07:49:51.448Z,1.24
2023-04-22T07:50:51.468Z,1.12
2023-04-22T07:51:51.473Z,1.09
2023-04-22T07:52:51.559Z,1.08
2023-04-22T07:53:51.584Z,0.80
2023-04-22T07:54:51.598Z,0.68
2023-04-22T07:55:51.678Z,0.59
2023-04-22T07:56:51.722Z,0.54
2023-04-22T07:57:51.740Z,0.53
2023-04-22T07:58:51.841Z,0.54
2023-04-22T07:59:51.875Z,0.70
2023-04-22T08:00:52.020Z,0.82
2023-04-22T08:01:51.970Z,0.84
2023-04-22T08:02:52.115Z,0.87
2023-04-22T08:03:52.428Z,0.92
2023-04-22T08:04:52.255Z,0.92
2023-04-22T08:05:52.223Z,1.12
2023-04-22T08:06:52.238Z,1.03
2023-04-22T08:07:52.272Z,1.08
2023-04-22T08:08:52.312Z,0.62
2023-04-22T08:09:52.317Z,0.53
2023-04-22T08:10:52.346Z,0.52
2023-04-22T08:11:52.361Z,0.52
2023-04-22T08:12:52.380Z,0.68
2023-04-22T08:13:52.446Z,0.62
2023-04-22T08:14:52.469Z,0.61
2023-04-22T08:15:52.529Z,0.61
2023-04-22T08:16:52.479Z,0.52
2023-04-22T08:17:52.554Z,0.51
2023-04-22T08:18:52.564Z,0.61
2023-04-22T08:19:52.558Z,0.65
2023-04-22T08:20:52.563Z,0.61
2023-04-22T08:21:52.605Z,0.65
2023-04-22T08:22:52.586Z,0.54
2023-04-22T08:23:52.621Z,0.56
2023-04-22T08:24:52.644Z,0.61
2023-04-22T08:25:52.649Z,0.64
2023-04-22T08:26:52.664Z,0.64
2023-04-22T08:27:52.646Z,0.62
2023-04-22T08:28:52.662Z,0.53
2023-04-22T08:29:52.688Z,0.55
2023-04-22T08:30:52.649Z,0.50
2023-04-22T08:31:52.642Z,0.53
2023-04-22T08:32:52.735Z,0.49
2023-04-22T08:33:52.712Z,0.50
2023-04-22T08:34:54.241Z,0.55
2023-04-22T08:35:53.731Z,0.44
2023-04-22T08:36:52.682Z,0.35
2023-04-22T08:37:52.639Z,0.34
2023-04-22T08:38:52.690Z,0.43
2023-04-22T08:39:52.641Z,0.46
2023-04-22T08:40:52.636Z,0.68
2023-04-22T08:41:52.601Z,0.75
2023-04-22T08:42:52.683Z,0.64
2023-04-22T08:43:52.631Z,0.59
2023-04-22T08:44:52.589Z,0.52
2023-04-22T08:45:52.590Z,0.55
2023-04-22T08:46:52.650Z,0.63
2023-04-22T08:47:52.666Z,0.52
2023-04-22T08:48:52.549Z,0.52
2023-04-22T08:49:52.601Z,0.65
2023-04-22T08:50:52.599Z,0.62
2023-04-22T08:51:52.686Z,0.63
2023-04-22T08:52:52.720Z,0.88
2023-04-22T08:53:52.784Z,0.74
2023-04-22T08:54:52.788Z,0.71
2023-04-22T08:55:52.861Z,0.74
2023-04-22T08:56:52.914Z,0.81
2023-04-22T08:57:52.947Z,0.72
2023-04-22T08:58:52.993Z,0.71
2023-04-22T08:59:53.039Z,0.66
2023-04-22T09:00:53.091Z,0.68
2023-04-22T09:01:53.157Z,0.61
2023-04-22T09:02:53.259Z,0.61
2023-04-22T09:03:53.309Z,0.60
2023-04-22T09:04:53.281Z,0.62
2023-04-22T09:05:53.301Z,0.56
2023-04-22T09:06:53.321Z,0.47
2023-04-22T09:07:53.328Z,0.72
2023-04-22T09:08:53.401Z,0.61
2023-04-22T09:09:53.409Z,0.52
2023-04-22T09:10:53.452Z,0.45
2023-04-22T09:11:53.483Z,0.71
2023-04-22T09:12:53.533Z,0.68
2023-04-22T09:13:53.644Z,0.99
2023-04-22T09:14:53.593Z,0.92
2023-04-22T09:15:53.645Z,0.69
2023-04-22T09:16:53.727Z,0.48
2023-04-22T09:17:53.696Z,0.52
2023-04-22T09:18:53.727Z,0.55
2023-04-22T09:19:53.712Z,0.74
2023-04-22T09:20:53.721Z,0.92
2023-04-22T09:21:54.418Z,1.20
2023-04-22T09:22:53.813Z,1.23
2023-04-22T09:23:53.822Z,1.41
2023-04-22T09:24:53.828Z,1.68
2023-04-22T09:25:53.832Z,1.46
2023-04-22T09:26:53.824Z,1.08
2023-04-22T09:27:53.841Z,0.74
2023-04-22T09:28:53.899Z,0.99
2023-04-22T09:29:53.855Z,0.83
2023-04-22T09:30:53.859Z,1.00
2023-04-22T09:31:53.886Z,1.17
2023-04-22T09:32:54.007Z,1.16
2023-04-22T09:33:53.890Z,1.04
2023-04-22T09:34:53.919Z,1.11
2023-04-22T09:35:53.897Z,0.59
2023-04-22T09:36:53.847Z,0.69
2023-04-22T09:37:53.882Z,0.83
2023-04-22T09:38:53.844Z,1.03
2023-04-22T09:39:53.855Z,1.04
2023-04-22T09:40:53.868Z,0.88
2023-04-22T09:41:53.883Z,0.51
2023-04-22T09:42:53.872Z,0.50
2023-04-22T09:43:53.884Z,0.56
2023-04-22T09:44:53.839Z,0.79
2023-04-22T09:45:53.942Z,1.12
2023-04-22T09:46:53.905Z,1.29
2023-04-22T09:47:53.997Z,1.12
2023-04-22T09:48:54.036Z,1.29
2023-04-22T09:49:54.110Z,1.69
2023-04-22T09:50:54.088Z,1.22
2023-04-22T09:51:54.200Z,1.40
2023-04-22T09:52:54.261Z,1.67
2023-04-22T09:53:54.313Z,1.09
2023-04-22T09:54:54.341Z,1.89
2023-04-22T09:55:54.548Z,2.05
2023-04-22T09:56:54.450Z,2.02
2023-04-22T09:57:54.579Z,1.63
2023-04-22T09:58:54.605Z,2.06
2023-04-22T09:59:54.599Z,2.00
2023-04-22T10:00:54.724Z,1.96
2023-04-22T10:01:54.695Z,1.74
2023-04-22T10:02:54.813Z,2.64
2023-04-22T10:03:54.824Z,2.60
2023-04-22T10:04:54.805Z,3.28
2023-04-22T10:05:54.933Z,2.21
2023-04-22T10:06:54.874Z,2.77
2023-04-22T10:07:54.947Z,3.01
2023-04-22T10:08:54.999Z,2.31
2023-04-22T10:09:55.054Z,2.72
2023-04-22T10:10:55.017Z,3.29
2023-04-22T10:11:55.055Z,3.52
2023-04-22T10:12:55.053Z,2.47
2023-04-22T10:13:55.076Z,3.40
2023-04-22T10:14:55.080Z,5.66
2023-04-22T10:15:55.138Z,5.59
2023-04-22T10:16:55.171Z,4.18
2023-04-22T10:17:55.170Z,4.04
2023-04-22T10:18:55.252Z,3.83
2023-04-22T10:19:55.236Z,6.26
2023-04-22T10:20:55.426Z,4.75
2023-04-22T10:21:55.319Z,7.35
2023-04-22T10:22:55.285Z,7.92
2023-04-22T10:23:55.481Z,6.58
2023-04-22T10:24:55.413Z,5.44
2023-04-22T10:25:55.375Z,6.90
2023-04-22T10:26:56.912Z,7.89
2023-04-22T10:27:55.353Z,11.30
2023-04-22T10:28:55.386Z,12.99
2023-04-22T10:29:55.426Z,13.92
2023-04-22T10:30:55.546Z,11.25
2023-04-22T10:31:55.608Z,11.05
2023-04-22T10:32:55.758Z,11.27
2023-04-22T10:33:55.640Z,12.22
2023-04-22T10:34:55.724Z,11.68
2023-04-22T10:35:55.726Z,11.80
2023-04-22T10:36:55.779Z,9.97
2023-04-22T10:37:55.884Z,9.81
2023-04-22T10:38:55.957Z,10.58
2023-04-22T10:39:55.996Z,8.98
2023-04-22T10:40:56.067Z,11.53
2023-04-22T10:41:56.229Z,11.17
2023-04-22T10:42:56.179Z,12.94
2023-04-22T10:43:56.219Z,15.58
2023-04-22T10:44:56.518Z,14.34
2023-04-22T10:45:56.678Z,9.79
2023-04-22T10:46:56.373Z,10.90
2023-04-22T10:47:56.484Z,9.94
2023-04-22T10:48:56.461Z,8.49
2023-04-22T10:49:56.532Z,9.83
2023-04-22T10:50:56.541Z,10.91
2023-04-22T10:51:56.595Z,9.86
2023-04-22T10:52:56.634Z,9.01
2023-04-22T10:53:56.704Z,11.72
2023-04-22T10:54:56.715Z,11.43
2023-04-22T10:55:56.763Z,11.14
2023-04-22T10:56:58.313Z,10.16
2023-04-22T10:57:56.808Z,9.89
2023-04-22T10:58:56.863Z,10.75
2023-04-22T10:59:56.861Z,10.88
2023-04-22T11:00:56.934Z,9.63
2023-04-22T11:01:56.962Z,9.04
2023-04-22T11:02:57.062Z,8.71
2023-04-22T11:03:57.057Z,9.45
2023-04-22T11:04:57.048Z,10.59
2023-04-22T11:05:57.061Z,12.01
2023-04-22T11:06:57.078Z,11.71
2023-04-22T11:07:57.130Z,11.61
2023-04-22T11:08:57.133Z,11.87
2023-04-22T11:09:57.215Z,10.84
2023-04-22T11:10:57.159Z,13.59
2023-04-22T11:11:57.201Z,13.72
2023-04-22T11:12:57.212Z,14.13
2023-04-22T11:13:57.244Z,13.64
2023-04-22T11:14:57.263Z,12.92
2023-04-22T11:15:57.264Z,11.60
2023-04-22T11:16:57.297Z,11.82
2023-04-22T11:17:57.345Z,11.87
2023-04-22T11:18:57.313Z,13.93
2023-04-22T11:19:57.304Z,14.19
2023-04-22T11:20:57.322Z,13.35
2023-04-22T11:21:57.344Z,13.79
2023-04-22T11:22:57.336Z,11.57
2023-04-22T11:23:57.314Z,11.12
2023-04-22T11:24:57.335Z,9.45
2023-04-22T11:25:57.336Z,9.58
2023-04-22T11:26:57.311Z,11.55
2023-04-22T11:27:57.358Z,12.53
2023-04-22T11:28:57.348Z,15.44
2023-04-22T11:29:57.319Z,15.38
2023-04-22T11:30:57.333Z,13.68
2023-04-22T11:31:57.447Z,15.15
2023-04-22T11:32:57.423Z,14.52
2023-04-22T11:33:57.454Z,14.37
2023-04-22T11:34:57.513Z,12.33
2023-04-22T11:35:57.505Z,11.22
2023-04-22T11:36:57.607Z,12.35
2023-04-22T11:37:57.635Z,13.77
2023-04-22T11:38:57.701Z,14.48
2023-04-22T11:40:17.284Z,13.54
2023-04-22T11:40:58.793Z,9.26
2023-04-22T11:41:57.754Z,9.75
2023-04-22T11:42:57.731Z,12.16
2023-04-22T11:43:57.774Z,11.19
2023-04-22T11:44:57.692Z,11.99
2023-04-22T11:45:57.788Z,13.90
2023-04-22T11:46:57.752Z,16.01
2023-04-22T11:47:57.730Z,13.21
2023-04-22T11:48:57.731Z,12.47
2023-04-22T11:49:57.736Z,13.66
2023-04-22T11:50:57.742Z,13.29
2023-04-22T11:51:57.831Z,13.18
2023-04-22T11:52:57.786Z,11.47
2023-04-22T11:53:57.850Z,13.60
2023-04-22T11:54:57.907Z,11.56
2023-04-22T11:55:57.947Z,11.42
2023-04-22T11:56:57.977Z,9.53
2023-04-22T11:57:58.024Z,8.03
2023-04-22T11:58:58.079Z,8.01
2023-04-22T11:59:58.197Z,8.56
2023-04-22T12:00:58.128Z,8.79
2023-04-22T12:01:58.186Z,8.12
2023-04-22T12:02:58.276Z,9.11
2023-04-22T12:03:58.408Z,9.36
2023-04-22T12:04:58.292Z,9.68
2023-04-22T12:05:58.285Z,11.08
2023-04-22T12:06:58.263Z,10.81
2023-04-22T12:07:58.333Z,9.56
2023-04-22T12:08:58.294Z,10.35
2023-04-22T12:09:58.301Z,11.71
2023-04-22T12:10:58.310Z,11.59
2023-04-22T12:11:58.319Z,11.64
2023-04-22T12:12:58.332Z,11.99
2023-04-22T12:13:58.365Z,11.47
2023-04-22T12:14:58.376Z,9.79
2023-04-22T12:15:58.384Z,9.30
2023-04-22T12:16:58.389Z,5.94
2023-04-22T12:17:58.407Z,7.05
2023-04-22T12:18:58.406Z,6.65
2023-04-22T12:19:58.412Z,6.73
2023-04-22T12:20:58.444Z,7.78
2023-04-22T12:21:58.390Z,6.90
2023-04-22T12:22:58.385Z,7.10
2023-04-22T12:23:58.430Z,6.90
2023-04-22T12:24:58.414Z,7.83
2023-04-22T12:25:58.377Z,7.62
2023-04-22T12:26:58.457Z,8.10
2023-04-22T12:27:58.444Z,9.13
2023-04-22T12:28:58.489Z,9.18
2023-04-22T12:29:58.488Z,9.28
2023-04-22T12:30:58.577Z,7.14
2023-04-22T12:31:58.625Z,4.63
2023-04-22T12:32:58.659Z,4.96
2023-04-22T12:33:58.747Z,5.97
2023-04-22T12:34:58.765Z,6.27
2023-04-22T12:35:58.832Z,5.85
2023-04-22T12:36:58.877Z,6.56
2023-04-22T12:37:58.950Z,6.35
2023-04-22T12:38:58.992Z,5.14
2023-04-22T12:39:59.047Z,5.12
2023-04-22T12:40:59.132Z,4.73
2023-04-22T12:41:59.143Z,5.50
2023-04-22T12:42:59.185Z,5.80
2023-04-22T12:43:59.298Z,7.05
2023-04-22T12:44:59.273Z,7.99
2023-04-22T12:45:59.356Z,7.52
2023-04-22T12:46:59.415Z,5.88
2023-04-22T12:47:59.564Z,6.91
2023-04-22T12:48:59.445Z,6.61
2023-04-22T12:49:59.476Z,5.25
2023-04-22T12:50:59.511Z,6.72
2023-04-22T12:51:59.548Z,7.46
2023-04-22T12:52:59.571Z,6.80
2023-04-22T12:53:59.575Z,6.86
2023-04-22T12:54:59.643Z,6.86
2023-04-22T12:55:59.605Z,5.67
2023-04-22T12:56:59.677Z,5.45
2023-04-22T12:57:59.693Z,5.19
2023-04-22T12:58:59.689Z,4.81
2023-04-22T12:59:59.743Z,2.77
2023-04-22T13:00:59.761Z,3.56
2023-04-22T13:01:59.802Z,2.00
2023-04-22T13:02:59.855Z,2.77
2023-04-22T13:04:00.012Z,2.59
2023-04-22T13:04:59.885Z,3.40
2023-04-22T13:05:59.861Z,2.85
2023-04-22T13:06:59.883Z,2.79
2023-04-22T13:08:06.960Z,2.81
2023-04-22T13:09:00.909Z,2.70
2023-04-22T13:09:59.910Z,2.45
2023-04-22T13:10:59.908Z,2.94
2023-04-22T13:11:59.891Z,3.11
2023-04-22T13:13:10.169Z,3.98
2023-04-22T13:14:00.895Z,2.85
2023-04-22T13:14:59.828Z,2.87
2023-04-22T13:16:00.026Z,3.08